Time,TemperatureF,DewpointF,PressureIn,WindDirection,WindDirectionDegrees,WindSpeedMPH,WindSpeedGustMPH,Humidity,HourlyPrecipIn,Conditions,Clouds,dailyrainin,SoftwareType,DateUTC
2013-07-03 00:00:00,76.1,51.9,30.02,North,0,0.0,0.0,43,0.00,,,0.00,WUHU216HW,2013-07-03 05:00:00,
2013-07-03 00:05:00,76.1,51.9,30.02,North,0,0.0,0.0,43,0.00,,,0.00,WUHU216HW,2013-07-03 05:05:00,
2013-07-03 00:07:00,76.1,51.9,30.02,North,0,0.0,0.0,43,0.00,,,0.00,WUHU216HW,2013-07-03 05:07:00,
2013-07-03 00:30:00,74.9,51.4,30.03,North,0,0.0,0.0,44,0.00,,,0.00,WUHU216HW,2013-07-03 05:30:00,
2013-07-03 00:35:00,74.9,51.4,30.03,North,0,0.0,0.0,44,0.00,,,0.00,WUHU216HW,2013-07-03 05:35:00,
2013-07-03 01:00:00,74.3,52.1,30.03,North,0,0.0,0.0,46,0.00,,,0.00,WUHU216HW,2013-07-03 06:00:00,
2013-07-03 01:02:00,74.3,52.1,30.03,North,0,0.0,0.0,46,0.00,,,0.00,WUHU216HW,2013-07-03 06:02:00,
2013-07-03 01:07:00,74.3,52.1,30.03,North,0,0.0,0.0,46,0.00,,,0.00,WUHU216HW,2013-07-03 06:07:00,
2013-07-03 01:30:00,73.3,51.7,30.03,North,0,0.0,0.0,47,0.00,,,0.00,WUHU216HW,2013-07-03 06:30:00,
2013-07-03 01:31:00,73.3,51.7,30.03,North,0,0.0,0.0,47,0.00,,,0.00,WUHU216HW,2013-07-03 06:31:00,
2013-07-03 01:32:00,73.3,51.7,30.03,North,0,0.0,0.0,47,0.00,,,0.00,WUHU216HW,2013-07-03 06:32:00,
2013-07-03 01:37:00,73.3,51.7,30.03,North,0,0.0,0.0,47,0.00,,,0.00,WUHU216HW,2013-07-03 06:37:00,
2013-07-03 02:00:00,72.9,51.9,30.02,North,0,0.0,0.0,48,0.00,,,0.00,WUHU216HW,2013-07-03 07:00:00,
2013-07-03 02:05:00,72.9,51.9,30.02,North,0,0.0,0.0,48,0.00,,,0.00,WUHU216HW,2013-07-03 07:05:00,
2013-07-03 02:30:00,72.4,51.5,30.02,North,0,0.0,0.0,48,0.00,,,0.00,WUHU216HW,2013-07-03 07:30:00,
2013-07-03 02:35:00,72.4,51.5,30.02,North,0,0.0,0.0,48,0.00,,,0.00,WUHU216HW,2013-07-03 07:35:00,
2013-07-03 02:38:00,72.4,51.5,30.02,North,0,0.0,0.0,48,0.00,,,0.00,WUHU216HW,2013-07-03 07:38:00,
2013-07-03 03:00:00,72.2,51.9,30.01,North,0,0.0,0.0,49,0.00,,,0.00,WUHU216HW,2013-07-03 08:00:00,
2013-07-03 03:01:00,72.2,51.9,30.01,North,0,0.0,0.0,49,0.00,,,0.00,WUHU216HW,2013-07-03 08:01:00,
2013-07-03 03:06:00,72.2,51.9,30.01,North,0,0.0,0.0,49,0.00,,,0.00,WUHU216HW,2013-07-03 08:06:00,
2013-07-03 03:08:00,72.2,51.9,30.01,North,0,0.0,0.0,49,0.00,,,0.00,WUHU216HW,2013-07-03 08:08:00,
2013-07-03 03:09:00,72.2,51.9,30.01,North,0,0.0,0.0,49,0.00,,,0.00,WUHU216HW,2013-07-03 08:09:00,
2013-07-03 03:30:00,72.0,52.4,30.01,North,0,0.0,0.0,50,0.00,,,0.00,WUHU216HW,2013-07-03 08:30:00,
2013-07-03 03:35:00,72.0,52.4,30.01,North,0,0.0,0.0,50,0.00,,,0.00,WUHU216HW,2013-07-03 08:35:00,
2013-07-03 03:39:00,72.0,52.4,30.01,North,0,0.0,0.0,50,0.00,,,0.00,WUHU216HW,2013-07-03 08:39:00,
2013-07-03 04:00:00,71.6,51.4,30.01,North,0,0.0,0.0,49,0.00,,,0.00,WUHU216HW,2013-07-03 09:00:00,
2013-07-03 04:05:00,71.6,51.4,30.01,North,0,0.0,0.0,49,0.00,,,0.00,WUHU216HW,2013-07-03 09:05:00,
2013-07-03 04:30:00,71.3,51.7,30.01,North,0,0.0,0.0,50,0.00,,,0.00,WUHU216HW,2013-07-03 09:30:00,
2013-07-03 04:35:00,71.3,51.7,30.01,North,0,0.0,0.0,50,0.00,,,0.00,WUHU216HW,2013-07-03 09:35:00,
2013-07-03 05:00:00,70.6,51.6,30.00,North,0,0.0,0.0,51,0.00,,,0.00,WUHU216HW,2013-07-03 10:00:00,
2013-07-03 05:04:00,70.6,51.6,30.00,North,0,0.0,0.0,51,0.00,,,0.00,WUHU216HW,2013-07-03 10:04:00,
2013-07-03 05:05:00,70.6,51.6,30.00,North,0,0.0,0.0,51,0.00,,,0.00,WUHU216HW,2013-07-03 10:05:00,
2013-07-03 05:30:00,70.2,52.2,30.00,North,0,0.0,0.0,53,0.00,,,0.00,WUHU216HW,2013-07-03 10:30:00,
2013-07-03 05:31:00,70.2,52.2,30.00,North,0,0.0,0.0,53,0.00,,,0.00,WUHU216HW,2013-07-03 10:31:00,
2013-07-03 05:37:00,70.2,52.2,30.00,North,0,0.0,0.0,53,0.00,,,0.00,WUHU216HW,2013-07-03 10:37:00,
2013-07-03 06:00:00,70.0,51.0,30.01,North,0,0.0,0.0,51,0.00,,,0.00,WUHU216HW,2013-07-03 11:00:00,
2013-07-03 06:05:00,70.0,51.0,30.01,North,0,0.0,0.0,51,0.00,,,0.00,WUHU216HW,2013-07-03 11:05:00,
2013-07-03 06:08:00,70.0,51.0,30.01,North,0,0.0,0.0,51,0.00,,,0.00,WUHU216HW,2013-07-03 11:08:00,
2013-07-03 06:09:00,70.0,51.0,30.01,North,0,0.0,0.0,51,0.00,,,0.00,WUHU216HW,2013-07-03 11:09:00,
2013-07-03 06:30:00,69.5,51.1,30.01,North,0,0.0,0.0,52,0.00,,,0.00,WUHU216HW,2013-07-03 11:30:00,
2013-07-03 06:35:00,69.5,51.1,30.01,North,0,0.0,0.0,52,0.00,,,0.00,WUHU216HW,2013-07-03 11:35:00,
2013-07-03 07:00:00,68.9,51.6,30.01,North,0,0.0,0.0,54,0.00,,,0.00,WUHU216HW,2013-07-03 12:00:00,
2013-07-03 07:01:00,68.9,51.6,30.01,North,0,0.0,0.0,54,0.00,,,0.00,WUHU216HW,2013-07-03 12:01:00,
2013-07-03 07:02:00,68.9,51.6,30.01,North,0,0.0,0.0,54,0.00,,,0.00,WUHU216HW,2013-07-03 12:02:00,
2013-07-03 07:07:00,68.9,51.6,30.01,North,0,0.0,0.0,54,0.00,,,0.00,WUHU216HW,2013-07-03 12:07:00,
2013-07-03 07:30:00,69.7,53.3,30.02,North,0,0.0,0.0,56,0.00,,,0.00,WUHU216HW,2013-07-03 12:30:00,
2013-07-03 07:31:00,69.7,53.3,30.02,North,0,0.0,0.0,56,0.00,,,0.00,WUHU216HW,2013-07-03 12:31:00,
2013-07-03 07:36:00,69.7,53.3,30.02,North,0,0.0,0.0,56,0.00,,,0.00,WUHU216HW,2013-07-03 12:36:00,
2013-07-03 08:00:00,72.0,55.4,30.03,North,0,0.0,0.0,56,0.00,,,0.00,WUHU216HW,2013-07-03 13:00:00,
2013-07-03 08:02:00,72.0,55.4,30.03,North,0,0.0,0.0,56,0.00,,,0.00,WUHU216HW,2013-07-03 13:02:00,
2013-07-03 08:07:00,72.0,55.4,30.03,North,0,0.0,0.0,56,0.00,,,0.00,WUHU216HW,2013-07-03 13:07:00,
2013-07-03 08:30:00,74.7,57.4,30.04,North,0,0.0,0.0,55,0.00,,,0.00,WUHU216HW,2013-07-03 13:30:00,
2013-07-03 08:35:00,74.7,57.4,30.04,North,0,0.0,0.0,55,0.00,,,0.00,WUHU216HW,2013-07-03 13:35:00,
2013-07-03 08:37:00,74.7,57.4,30.04,North,0,0.0,0.0,55,0.00,,,0.00,WUHU216HW,2013-07-03 13:37:00,
2013-07-03 09:00:00,77.2,58.8,30.04,North,0,0.0,0.0,53,0.00,,,0.00,WUHU216HW,2013-07-03 14:00:00,
2013-07-03 09:05:00,77.2,58.8,30.04,North,0,0.0,0.0,53,0.00,,,0.00,WUHU216HW,2013-07-03 14:05:00,
2013-07-03 09:06:00,77.2,58.8,30.04,North,0,0.0,0.0,53,0.00,,,0.00,WUHU216HW,2013-07-03 14:06:00,
2013-07-03 09:09:00,77.2,58.8,30.04,North,0,0.0,0.0,53,0.00,,,0.00,WUHU216HW,2013-07-03 14:09:00,
2013-07-03 09:30:00,78.8,59.2,30.04,North,0,0.0,0.0,51,0.00,,,0.00,WUHU216HW,2013-07-03 14:30:00,
2013-07-03 09:35:00,78.8,59.2,30.04,North,0,0.0,0.0,51,0.00,,,0.00,WUHU216HW,2013-07-03 14:35:00,
2013-07-03 09:38:00,78.8,59.2,30.04,North,0,0.0,0.0,51,0.00,,,0.00,WUHU216HW,2013-07-03 14:38:00,
2013-07-03 10:00:00,80.3,59.9,30.04,North,0,0.0,0.0,50,0.00,,,0.00,WUHU216HW,2013-07-03 15:00:00,
2013-07-03 10:01:00,80.3,59.9,30.04,North,0,0.0,0.0,50,0.00,,,0.00,WUHU216HW,2013-07-03 15:01:00,
2013-07-03 10:03:00,80.3,59.9,30.04,North,0,0.0,0.0,50,0.00,,,0.00,WUHU216HW,2013-07-03 15:03:00,
2013-07-03 10:08:00,80.3,59.9,30.04,North,0,0.0,0.0,50,0.00,,,0.00,WUHU216HW,2013-07-03 15:08:00,
2013-07-03 10:30:00,81.7,58.2,30.04,North,0,0.0,0.0,45,0.00,,,0.00,WUHU216HW,2013-07-03 15:30:00,
2013-07-03 10:35:00,81.7,58.2,30.04,North,0,0.0,0.0,45,0.00,,,0.00,WUHU216HW,2013-07-03 15:35:00,
2013-07-03 11:00:00,83.0,56.3,30.04,North,0,0.0,0.0,40,0.00,,,0.00,WUHU216HW,2013-07-03 16:00:00,
2013-07-03 11:05:00,83.0,56.3,30.04,North,0,0.0,0.0,40,0.00,,,0.00,WUHU216HW,2013-07-03 16:05:00,
2013-07-03 11:30:00,83.3,55.0,30.04,North,0,0.0,0.0,38,0.00,,,0.00,WUHU216HW,2013-07-03 16:30:00,
2013-07-03 11:35:00,83.3,55.0,30.04,North,0,0.0,0.0,38,0.00,,,0.00,WUHU216HW,2013-07-03 16:35:00,
2013-07-03 12:00:00,85.0,53.3,30.03,North,0,0.0,0.0,34,0.00,,,0.00,WUHU216HW,2013-07-03 17:00:00,
2013-07-03 12:05:00,85.0,53.3,30.03,North,0,0.0,0.0,34,0.00,,,0.00,WUHU216HW,2013-07-03 17:05:00,
2013-07-03 12:30:00,85.9,54.1,30.03,North,0,0.0,0.0,34,0.00,,,0.00,WUHU216HW,2013-07-03 17:30:00,
2013-07-03 12:36:00,85.9,54.1,30.03,North,0,0.0,0.0,34,0.00,,,0.00,WUHU216HW,2013-07-03 17:36:00,
2013-07-03 13:00:00,87.1,52.0,30.02,North,0,0.0,0.0,30,0.00,,,0.00,WUHU216HW,2013-07-03 18:00:00,
2013-07-03 13:05:00,87.1,52.0,30.02,North,0,0.0,0.0,30,0.00,,,0.00,WUHU216HW,2013-07-03 18:05:00,
2013-07-03 13:30:00,88.6,52.1,30.02,North,0,0.0,0.0,29,0.00,,,0.00,WUHU216HW,2013-07-03 18:30:00,
2013-07-03 13:35:00,88.6,52.1,30.02,North,0,0.0,0.0,29,0.00,,,0.00,WUHU216HW,2013-07-03 18:35:00,
2013-07-03 14:00:00,89.1,51.6,30.00,North,0,0.0,0.0,28,0.00,,,0.00,WUHU216HW,2013-07-03 19:00:00,
2013-07-03 14:05:00,89.1,51.6,30.00,North,0,0.0,0.0,28,0.00,,,0.00,WUHU216HW,2013-07-03 19:05:00,
2013-07-03 14:30:00,88.6,49.0,29.99,North,0,0.0,0.0,26,0.00,,,0.00,WUHU216HW,2013-07-03 19:30:00,
2013-07-03 14:35:00,88.6,49.0,29.99,North,0,0.0,0.0,26,0.00,,,0.00,WUHU216HW,2013-07-03 19:35:00,
2013-07-03 15:00:00,89.8,49.0,29.99,North,0,0.0,0.0,25,0.00,,,0.00,WUHU216HW,2013-07-03 20:00:00,
2013-07-03 15:05:00,89.8,49.0,29.99,North,0,0.0,0.0,25,0.00,,,0.00,WUHU216HW,2013-07-03 20:05:00,
2013-07-03 15:30:00,90.7,51.8,29.97,North,0,0.0,0.0,27,0.00,,,0.00,WUHU216HW,2013-07-03 20:30:00,
2013-07-03 15:35:00,90.7,51.8,29.97,North,0,0.0,0.0,27,0.00,,,0.00,WUHU216HW,2013-07-03 20:35:00,
2013-07-03 16:00:00,90.7,49.7,29.97,North,0,0.0,0.0,25,0.00,,,0.00,WUHU216HW,2013-07-03 21:00:00,
2013-07-03 16:05:00,90.7,49.7,29.97,North,0,0.0,0.0,25,0.00,,,0.00,WUHU216HW,2013-07-03 21:05:00,
2013-07-03 16:30:00,91.1,48.9,29.96,North,0,0.0,0.0,24,0.00,,,0.00,WUHU216HW,2013-07-03 21:30:00,
2013-07-03 16:35:00,91.1,48.9,29.96,North,0,0.0,0.0,24,0.00,,,0.00,WUHU216HW,2013-07-03 21:35:00,
2013-07-03 17:00:00,90.0,48.0,29.95,North,0,0.0,0.0,24,0.00,,,0.00,WUHU216HW,2013-07-03 22:00:00,
2013-07-03 17:05:00,90.0,48.0,29.95,North,0,0.0,0.0,24,0.00,,,0.00,WUHU216HW,2013-07-03 22:05:00,
2013-07-03 17:30:00,90.7,51.8,29.94,North,0,0.0,0.0,27,0.00,,,0.00,WUHU216HW,2013-07-03 22:30:00,
2013-07-03 17:35:00,90.7,51.8,29.94,North,0,0.0,0.0,27,0.00,,,0.00,WUHU216HW,2013-07-03 22:35:00,
2013-07-03 18:00:00,89.5,49.7,29.94,North,0,0.0,0.0,26,0.00,,,0.00,WUHU216HW,2013-07-03 23:00:00,
2013-07-03 18:05:00,89.5,49.7,29.94,North,0,0.0,0.0,26,0.00,,,0.00,WUHU216HW,2013-07-03 23:05:00,
2013-07-03 18:30:00,88.9,52.5,29.93,North,0,0.0,0.0,29,0.00,,,0.00,WUHU216HW,2013-07-03 23:30:00,
2013-07-03 18:35:00,88.9,52.5,29.93,North,0,0.0,0.0,29,0.00,,,0.00,WUHU216HW,2013-07-03 23:35:00,
2013-07-03 19:00:00,88.6,52.1,29.93,North,0,0.0,0.0,29,0.00,,,0.00,WUHU216HW,2013-07-04 00:00:00,
2013-07-03 19:05:00,88.6,52.1,29.93,North,0,0.0,0.0,29,0.00,,,0.00,WUHU216HW,2013-07-04 00:05:00,
2013-07-03 19:30:00,87.5,52.3,29.93,North,0,0.0,0.0,30,0.00,,,0.00,WUHU216HW,2013-07-04 00:30:00,
2013-07-03 19:35:00,87.5,52.3,29.93,North,0,0.0,0.0,30,0.00,,,0.00,WUHU216HW,2013-07-04 00:35:00,
2013-07-03 20:00:00,86.4,52.2,29.93,North,0,0.0,0.0,31,0.00,,,0.00,WUHU216HW,2013-07-04 01:00:00,
2013-07-03 20:05:00,86.4,52.2,29.93,North,0,0.0,0.0,31,0.00,,,0.00,WUHU216HW,2013-07-04 01:05:00,
2013-07-03 20:30:00,85.3,52.0,29.93,North,0,0.0,0.0,32,0.00,,,0.00,WUHU216HW,2013-07-04 01:30:00,
2013-07-03 20:35:00,85.3,52.0,29.93,North,0,0.0,0.0,32,0.00,,,0.00,WUHU216HW,2013-07-04 01:35:00,
2013-07-03 21:00:00,84.2,51.8,29.93,North,0,0.0,0.0,33,0.00,,,0.00,WUHU216HW,2013-07-04 02:00:00,
2013-07-03 21:05:00,84.2,51.8,29.93,North,0,0.0,0.0,33,0.00,,,0.00,WUHU216HW,2013-07-04 02:05:00,
2013-07-03 21:30:00,83.2,51.7,29.94,North,0,0.0,0.0,34,0.00,,,0.00,WUHU216HW,2013-07-04 02:30:00,
2013-07-03 21:35:00,83.2,51.7,29.94,North,0,0.0,0.0,34,0.00,,,0.00,WUHU216HW,2013-07-04 02:35:00,
2013-07-03 22:00:00,82.4,51.8,29.95,North,0,0.0,0.0,35,0.00,,,0.00,WUHU216HW,2013-07-04 03:00:00,
2013-07-03 22:05:00,82.4,51.8,29.95,North,0,0.0,0.0,35,0.00,,,0.00,WUHU216HW,2013-07-04 03:05:00,
2013-07-03 22:30:00,81.7,52.8,29.95,North,0,0.0,0.0,37,0.00,,,0.00,WUHU216HW,2013-07-04 03:30:00,
2013-07-03 22:35:00,81.7,52.8,29.95,North,0,0.0,0.0,37,0.00,,,0.00,WUHU216HW,2013-07-04 03:35:00,
2013-07-03 23:00:00,81.0,52.9,29.96,North,0,0.0,0.0,38,0.00,,,0.00,WUHU216HW,2013-07-04 04:00:00,
2013-07-03 23:01:00,81.0,52.9,29.96,North,0,0.0,0.0,38,0.00,,,0.00,WUHU216HW,2013-07-04 04:01:00,
2013-07-03 23:06:00,81.0,52.9,29.96,North,0,0.0,0.0,38,0.00,,,0.00,WUHU216HW,2013-07-04 04:06:00,
2013-07-03 23:30:00,80.3,53.8,29.96,North,0,0.0,0.0,40,0.00,,,0.00,WUHU216HW,2013-07-04 04:30:00,
2013-07-03 23:35:00,80.3,53.8,29.96,North,0,0.0,0.0,40,0.00,,,0.00,WUHU216HW,2013-07-04 04:35:00,